Aviation Digital Data Service (ADDS)

Output produced by METARs form (0535 UTC 21 January 2019)
found at http://www.aviationweather.gov/metar/data/
 
METAR text: FVFA 210500Z 11010KT CAVOK 19/17 Q1021 NOSIG
Conditions at: FVFA (VICTORIA FALLS , ZW) observed 0500 UTC 21 January 2019
Temperature: 19.0°C (66°F)
Dewpoint: 17.0°C (63°F) [RH = 88%]
Pressure (altimeter): 30.15 inches Hg (1021.0 mb)
Winds: from the ESE (110 degrees) at 12 MPH (10 knots; 5.1 m/s)
Visibility: 6 or more miles (10+ km)
Ceiling: ceiling and visibility are OK
Clouds: unknown
Weather: no significant weather observed at this time

METAR text: FVFA 200900Z 06009KT 040V100 //// FEW025 SCT090 BKN300 25/19 Q1020 NOSIG
Conditions at: FVFA (VICTORIA FALLS , ZW) observed 0900 UTC 20 January 2019
Temperature: 25.0°C (77°F)
Dewpoint: 19.0°C (66°F) [RH = 69%]
Pressure (altimeter): 30.12 inches Hg (1020.0 mb)
Winds: from the ENE (60 degrees) at 10 MPH (9 knots; 4.6 m/s)
Visibility: missing
Ceiling: 30000 feet AGL
Clouds: few clouds at 2500 feet AGL
scattered clouds at 9000 feet AGL
broken clouds at 30000 feet AGL
Weather: no significant weather observed at this time